Time;durP1;ratioP1;P1;durP2;ratioP2;P2;SDS_P1;SDS_P2;PMS_P1;PMS_P2;Temp;Humidity;BMP_temperature;BMP_pressure;BME280_temperature;BME280_humidity;BME280_pressure;Samples;Min_cycle;Max_cycle;Signal;HPM_P1;HPM_P2
2022/09/06 00:02:20;;;;;;;;;;;;;;;21.72;55.52;100393.00;4384558;32;38867;-90
2022/09/06 00:04:48;;;;;;;;;;;;;;;21.59;55.82;100395.03;4383561;32;40189;-92
2022/09/06 00:07:15;;;;;;;;;;;;;;;21.75;55.36;100392.94;4391271;32;36870;-90
2022/09/06 00:09:43;;;;;;;;;;;;;;;21.77;55.18;100388.53;4395064;32;39153;-90
2022/09/06 00:12:10;;;;;;;;;;;;;;;21.55;55.92;100395.16;4395565;32;39269;-90
2022/09/06 00:14:37;;;;;;;;;;;;;;;21.64;55.35;100389.69;4397494;32;37941;-89
2022/09/06 00:17:05;;;;;;;;;;;;;;;21.57;55.55;100388.09;4387546;32;36689;-89
2022/09/06 00:19:32;;;;;;;;;;;;;;;21.54;55.45;100388.16;4390166;32;38165;-88
2022/09/06 00:21:59;;;;;;;;;;;;;;;21.44;55.97;100389.19;4384329;32;37763;-90
2022/09/06 00:24:26;;;;;;;;;;;;;;;21.37;56.23;100397.22;4394861;32;39583;-89
2022/09/06 00:26:57;;;;;;;;;;;;;;;21.34;55.92;100391.97;4383436;32;37571;-88
2022/09/06 00:29:24;;;;;;;;;;;;;;;21.31;56.20;100397.34;4392044;32;37920;-88
2022/09/06 00:31:52;;;;;;;;;;;;;;;21.29;56.08;100399.13;4385557;32;39339;-89
2022/09/06 00:34:19;;;;;;;;;;;;;;;21.19;56.20;100402.81;4388943;32;38833;-89
2022/09/06 00:36:47;;;;;;;;;;;;;;;21.32;55.54;100404.34;4384786;32;36827;-91
2022/09/06 00:39:14;;;;;;;;;;;;;;;21.09;56.41;100401.22;4385109;32;38229;-89
2022/09/06 00:41:41;;;;;;;;;;;;;;;21.27;55.92;100395.63;4392499;32;37956;-89
2022/09/06 00:44:09;;;;;;;;;;;;;;;21.23;56.01;100404.50;4388413;32;39900;-89
2022/09/06 00:46:36;;;;;;;;;;;;;;;21.21;56.09;100400.16;4388623;32;37715;-90
2022/09/06 00:49:04;;;;;;;;;;;;;;;21.02;56.85;100399.63;4396897;32;38376;-89
2022/09/06 00:51:33;;;;;;;;;;;;;;;21.09;56.58;100396.87;4385608;32;37741;-89
2022/09/06 00:54:04;;;;;;;;;;;;;;;21.11;56.50;100394.19;4392273;32;39123;-89
2022/09/06 00:56:32;;;;;;;;;;;;;;;20.87;57.33;100391.12;4396547;32;37921;-90
2022/09/06 00:59:00;;;;;;;;;;;;;;;21.09;56.36;100395.97;4396650;32;37873;-89
2022/09/06 01:01:27;;;;;;;;;;;;;;;20.80;57.45;100394.72;4402662;32;38004;-89
2022/09/06 01:03:55;;;;;;;;;;;;;;;20.89;57.08;100394.56;4383523;32;39737;-89
2022/09/06 01:06:23;;;;;;;;;;;;;;;21.14;56.18;100404.66;4391606;32;37507;-90
2022/09/06 01:08:57;;;;;;;;;;;;;;;20.86;57.15;100399.87;4396179;32;38752;-91
2022/09/06 01:11:30;;;;;;;;;;;;;;;21.06;56.24;100396.06;4396549;32;37983;-89
2022/09/06 01:14:00;;;;;;;;;;;;;;;20.84;56.96;100391.16;4382546;32;38761;-91
2022/09/06 01:16:38;;;;;;;;;;;;;;;20.76;57.27;100395.66;4386854;32;36863;-90
2022/09/06 01:19:05;;;;;;;;;;;;;;;20.63;58.05;100391.50;4384319;32;38133;-91
2022/09/06 01:21:35;;;;;;;;;;;;;;;20.82;57.35;100398.19;4384801;32;38561;-91
2022/09/06 01:24:24;;;;;;;;;;;;;;;20.57;58.18;100402.13;4392446;32;38789;-91
2022/09/06 01:26:51;;;;;;;;;;;;;;;20.57;57.76;100402.13;4385751;32;38053;-91
2022/09/06 01:29:27;;;;;;;;;;;;;;;20.97;56.77;100390.94;4352783;32;38034;-91
2022/09/06 01:32:02;;;;;;;;;;;;;;;20.82;57.03;100387.69;4391750;32;38186;-92
2022/09/06 01:34:31;;;;;;;;;;;;;;;20.65;57.66;100384.47;4396277;32;39346;-91
2022/09/06 01:37:03;;;;;;;;;;;;;;;20.51;58.04;100389.03;4396857;32;37109;-90
2022/09/06 01:39:36;;;;;;;;;;;;;;;20.61;57.40;100388.03;4401662;32;38933;-87
2022/09/06 01:42:06;;;;;;;;;;;;;;;20.60;57.45;100381.03;4384836;32;38177;-90
2022/09/06 01:44:33;;;;;;;;;;;;;;;20.29;58.79;100386.72;4392418;32;38864;-87
2022/09/06 01:47:00;;;;;;;;;;;;;;;20.32;58.26;100391.94;4396383;32;37157;-92
2022/09/06 01:49:46;;;;;;;;;;;;;;;20.51;57.68;100396.94;4385724;32;38357;-90
2022/09/06 01:52:16;;;;;;;;;;;;;;;20.60;57.45;100388.94;4373451;32;38692;-90
2022/09/06 01:55:07;;;;;;;;;;;;;;;20.44;57.61;100391.75;4375928;32;38787;-88
2022/09/06 01:57:34;;;;;;;;;;;;;;;20.42;57.54;100383.06;4368184;32;37445;-88
2022/09/06 02:00:08;;;;;;;;;;;;;;;20.43;57.50;100379.53;4370039;32;38990;-89
2022/09/06 02:02:58;;;;;;;;;;;;;;;20.49;57.21;100382.97;4375588;32;39555;-89
2022/09/06 02:05:35;;;;;;;;;;;;;;;20.38;57.62;100381.34;4364745;32;39671;-88
2022/09/06 02:08:05;;;;;;;;;;;;;;;20.62;56.55;100389.78;4368377;32;38010;-89
2022/09/06 02:10:35;;;;;;;;;;;;;;;20.18;58.00;100388.66;4376831;32;38150;-90
2022/09/06 02:13:03;;;;;;;;;;;;;;;20.23;58.11;100386.84;4368874;32;39055;-90
2022/09/06 02:15:34;;;;;;;;;;;;;;;20.21;57.93;100383.37;4380830;32;39185;-89
2022/09/06 02:18:07;;;;;;;;;;;;;;;20.05;58.49;100381.84;4380730;32;37974;-88
2022/09/06 02:20:35;;;;;;;;;;;;;;;20.28;57.57;100378.88;4377906;32;37096;-92
2022/09/06 02:23:04;;;;;;;;;;;;;;;20.14;58.24;100381.72;4377419;32;39751;-91
2022/09/06 02:25:33;;;;;;;;;;;;;;;20.19;57.70;100380.75;4377014;32;38911;-91
2022/09/06 02:28:00;;;;;;;;;;;;;;;20.19;57.92;100377.25;4367879;32;37355;-90
2022/09/06 02:30:28;;;;;;;;;;;;;;;20.19;57.69;100375.50;4376524;32;38227;-89
2022/09/06 02:32:56;;;;;;;;;;;;;;;20.14;57.99;100376.47;4342056;32;873718;-90
2022/09/06 02:35:24;;;;;;;;;;;;;;;19.86;58.84;100381.22;4381174;32;40625;-89
2022/09/06 02:37:51;;;;;;;;;;;;;;;20.12;57.80;100367.72;4386486;32;37074;-88
2022/09/06 02:40:19;;;;;;;;;;;;;;;20.07;57.95;100377.44;4370606;32;37958;-91
2022/09/06 02:42:46;;;;;;;;;;;;;;;19.71;59.16;100372.66;4368024;32;39335;-90
2022/09/06 02:45:14;;;;;;;;;;;;;;;20.00;57.97;100370.53;4376654;32;40014;-91
2022/09/06 02:47:41;;;;;;;;;;;;;;;19.84;58.59;100378.59;4376694;32;36816;-91
2022/09/06 02:50:08;;;;;;;;;;;;;;;20.04;57.91;100370.47;4383776;32;39648;-93
2022/09/06 02:52:36;;;;;;;;;;;;;;;20.14;57.02;100372.06;4382015;32;39131;-91
2022/09/06 02:55:03;;;;;;;;;;;;;;;19.94;57.84;100375.00;4393497;32;38885;-90
2022/09/06 02:57:30;;;;;;;;;;;;;;;19.92;58.05;100376.75;4385083;32;36976;-88
2022/09/06 02:59:58;;;;;;;;;;;;;;;20.03;57.43;100368.72;4392256;32;38511;-88
2022/09/06 03:02:25;;;;;;;;;;;;;;;20.01;57.56;100364.41;4374647;32;38215;-88
2022/09/06 03:04:52;;;;;;;;;;;;;;;19.81;58.26;100360.25;4337218;32;40086;-87
2022/09/06 03:07:20;;;;;;;;;;;;;;;19.85;58.05;100363.75;4371246;32;37501;-89
2022/09/06 03:09:47;;;;;;;;;;;;;;;19.76;58.17;100364.72;4371497;32;38519;-89
2022/09/06 03:12:14;;;;;;;;;;;;;;;19.76;58.17;100364.72;4370136;32;37610;-89
2022/09/06 03:14:43;;;;;;;;;;;;;;;19.80;57.91;100366.41;4369852;32;38852;-87
2022/09/06 03:17:10;;;;;;;;;;;;;;;19.68;58.19;100363.94;4370720;32;38084;-89
2022/09/06 03:19:37;;;;;;;;;;;;;;;19.70;58.23;100359.56;4377057;32;37942;-90
2022/09/06 03:22:05;;;;;;;;;;;;;;;19.92;57.35;100361.00;4381072;32;37962;-88
2022/09/06 03:24:32;;;;;;;;;;;;;;;19.69;58.20;100360.44;4353074;32;38802;-88
2022/09/06 03:26:59;;;;;;;;;;;;;;;19.82;57.58;100364.66;4339791;33;36916;-88
2022/09/06 03:29:27;;;;;;;;;;;;;;;19.95;57.20;100360.97;4340341;33;39072;-89
2022/09/06 03:31:54;;;;;;;;;;;;;;;19.77;57.71;100361.19;4339017;33;38160;-88
2022/09/06 03:34:21;;;;;;;;;;;;;;;19.78;57.70;100368.19;4346188;32;39101;-88
2022/09/06 03:36:49;;;;;;;;;;;;;;;19.63;58.09;100368.38;4345896;32;37976;-89
2022/09/06 03:39:16;;;;;;;;;;;;;;;19.79;57.58;100369.94;4349070;32;38840;-89
2022/09/06 03:41:43;;;;;;;;;;;;;;;19.76;57.60;100364.72;4349088;32;38349;-89
2022/09/06 03:44:11;;;;;;;;;;;;;;;19.87;57.13;100357.56;4380918;32;40164;-89
2022/09/06 03:46:38;;;;;;;;;;;;;;;19.57;58.19;100368.44;4369682;32;37380;-90
2022/09/06 03:49:06;;;;;;;;;;;;;;;19.49;58.52;100361.50;4369380;32;38045;-88
2022/09/06 03:51:34;;;;;;;;;;;;;;;19.49;58.66;100366.75;4360393;32;37964;-91
2022/09/06 03:54:01;;;;;;;;;;;;;;;19.43;58.56;100372.09;4376018;32;38710;-88
2022/09/06 03:56:28;;;;;;;;;;;;;;;19.22;59.25;100372.34;4369826;32;38117;-88
2022/09/06 03:58:56;;;;;;;;;;;;;;;19.17;59.49;100369.75;4369752;32;39142;-89
2022/09/06 04:01:23;;;;;;;;;;;;;;;19.36;58.69;100370.41;4371241;32;37975;-88
2022/09/06 04:03:51;;;;;;;;;;;;;;;19.39;58.52;100369.53;4372497;32;39133;-88
2022/09/06 04:06:18;;;;;;;;;;;;;;;19.60;57.86;100368.41;4369381;32;37934;-88
2022/09/06 04:08:45;;;;;;;;;;;;;;;19.51;57.95;100370.25;4382131;32;38221;-89
2022/09/06 04:11:13;;;;;;;;;;;;;;;19.46;58.13;100372.06;4373325;32;38899;-90
2022/09/06 04:13:43;;;;;;;;;;;;;;;19.37;58.76;100366.94;4367527;32;39286;-89
2022/09/06 04:16:10;;;;;;;;;;;;;;;19.48;58.30;100367.66;4376113;32;37996;-90
2022/09/06 04:18:38;;;;;;;;;;;;;;;19.52;57.88;100361.47;4368991;32;39738;-89
2022/09/06 04:21:05;;;;;;;;;;;;;;;19.22;59.20;100367.97;4369668;32;38190;-88
2022/09/06 04:23:32;;;;;;;;;;;;;;;19.09;59.90;100370.75;4368432;32;39389;-86
2022/09/06 04:26:06;;;;;;;;;;;;;;;19.43;58.48;100368.59;4365734;32;37025;-87
2022/09/06 04:28:33;;;;;;;;;;;;;;;19.53;58.03;100378.12;4371266;32;38856;-87
2022/09/06 04:31:01;;;;;;;;;;;;;;;19.37;58.59;100377.44;4368466;32;37983;-87
2022/09/06 04:33:32;;;;;;;;;;;;;;;19.28;58.90;100380.16;4366774;32;39806;-87
2022/09/06 04:35:59;;;;;;;;;;;;;;;19.25;58.85;100377.56;4378209;32;38659;-89
2022/09/06 04:38:27;;;;;;;;;;;;;;;19.27;58.49;100381.91;4367030;32;38941;-86
2022/09/06 04:40:55;;;;;;;;;;;;;;;19.22;59.38;100382.84;4373804;32;37988;-87
2022/09/06 04:43:23;;;;;;;;;;;;;;;19.39;58.52;100370.38;4369087;32;39840;-87
2022/09/06 04:45:50;;;;;;;;;;;;;;;19.18;59.43;100375.91;4357146;32;38020;-87
2022/09/06 04:48:18;;;;;;;;;;;;;;;19.46;58.45;100372.06;4372371;32;38012;-84
2022/09/06 04:50:45;;;;;;;;;;;;;;;19.41;58.69;100373.00;4368070;32;39174;-83
2022/09/06 04:53:12;;;;;;;;;;;;;;;19.37;58.96;100369.56;4366223;32;39947;-83
2022/09/06 04:55:40;;;;;;;;;;;;;;;19.42;58.91;100374.72;4373176;32;37737;-83
2022/09/06 04:58:07;;;;;;;;;;;;;;;19.47;58.81;100365.94;4378993;32;37117;-82
2022/09/06 05:00:35;;;;;;;;;;;;;;;19.47;58.79;100367.69;4367991;32;38908;-84
2022/09/06 05:03:02;;;;;;;;;;;;;;;19.51;58.91;100365.00;4367864;32;39179;-84
2022/09/06 05:05:29;;;;;;;;;;;;;;;19.55;58.82;100359.69;4373958;32;38120;-83
2022/09/06 05:07:57;;;;;;;;;;;;;;;19.57;58.80;100363.19;4371584;32;38876;-83
2022/09/06 05:10:24;;;;;;;;;;;;;;;19.66;58.50;100369.22;4378936;32;37685;-84
2022/09/06 05:12:52;;;;;;;;;;;;;;;19.59;59.02;100371.91;4368641;32;39745;-85
2022/09/06 05:15:20;;;;;;;;;;;;;;;19.52;59.48;100371.97;3139255;32;40606555;-85
2022/09/06 05:17:47;;;;;;;;;;;;;;;19.36;60.21;100378.28;4347898;32;39298;-85
2022/09/06 05:20:15;;;;;;;;;;;;;;;19.60;59.28;100368.41;4376542;32;39041;-85
2022/09/06 05:22:42;;;;;;;;;;;;;;;19.39;60.29;100365.13;4369393;32;37142;-86
2022/09/06 05:25:09;;;;;;;;;;;;;;;19.59;59.31;100372.78;4370600;32;38484;-83
2022/09/06 05:27:36;;;;;;;;;;;;;;;19.61;59.40;100375.38;4368512;32;38481;-84
2022/09/06 05:30:04;;;;;;;;;;;;;;;19.80;58.88;100376.91;4370030;32;38979;-82
2022/09/06 05:32:31;;;;;;;;;;;;;;;19.84;58.94;100369.88;4369387;32;37293;-84
2022/09/06 05:34:58;;;;;;;;;;;;;;;20.02;58.52;100371.38;4367127;32;38360;-84
2022/09/06 05:37:26;;;;;;;;;;;;;;;19.97;59.03;100367.06;4369391;32;38068;-86
2022/09/06 05:39:53;;;;;;;;;;;;;;;20.14;58.36;100365.97;4379367;32;39475;-84
2022/09/06 05:42:21;;;;;;;;;;;;;;;20.21;57.98;100367.59;4370067;32;36988;-85
2022/09/06 05:44:48;;;;;;;;;;;;;;;20.36;56.84;100370.00;4369085;32;39190;-83
2022/09/06 05:47:17;;;;;;;;;;;;;;;20.39;55.96;100372.56;4367444;32;37977;-84
2022/09/06 05:49:45;;;;;;;;;;;;;;;20.45;54.79;100382.09;4366992;32;38861;-83
2022/09/06 05:52:13;;;;;;;;;;;;;;;20.45;53.44;100376.84;4367997;32;36549;-82
2022/09/06 05:54:40;;;;;;;;;;;;;;;20.55;52.58;100373.25;4368823;32;37536;-82
2022/09/06 05:57:08;;;;;;;;;;;;;;;20.55;51.95;100367.97;4378266;32;37819;-83
2022/09/06 05:59:35;;;;;;;;;;;;;;;20.60;51.93;100366.13;4367322;32;39956;-83
2022/09/06 06:02:03;;;;;;;;;;;;;;;20.61;51.34;100361.72;4365017;32;37719;-83
2022/09/06 06:04:33;;;;;;;;;;;;;;;21.07;49.64;100372.31;4363629;32;38103;-83
2022/09/06 06:07:01;;;;;;;;;;;;;;;20.99;50.53;100378.63;4387177;32;38136;-83
2022/09/06 06:09:28;;;;;;;;;;;;;;;21.05;51.05;100373.25;4370988;32;38634;-84
2022/09/06 06:11:55;;;;;;;;;;;;;;;21.14;49.87;100367.81;4372064;32;36771;-83
2022/09/06 06:14:22;;;;;;;;;;;;;;;21.17;49.12;100367.75;4371352;32;38992;-83
2022/09/06 06:16:50;;;;;;;;;;;;;;;21.21;48.80;100364.16;4369825;32;37766;-83
2022/09/06 06:19:18;;;;;;;;;;;;;;;21.32;47.91;100367.47;4374456;32;39031;-87
2022/09/06 06:21:45;;;;;;;;;;;;;;;21.41;47.72;100360.28;4370274;32;38139;-83
2022/09/06 06:24:12;;;;;;;;;;;;;;;21.44;47.38;100366.41;4369701;32;39168;-82
2022/09/06 06:26:40;;;;;;;;;;;;;;;21.49;45.98;100359.25;4377282;32;37803;-83
2022/09/06 06:29:08;;;;;;;;;;;;;;;21.49;46.66;100363.66;4371278;32;39243;-83
2022/09/06 06:31:36;;;;;;;;;;;;;;;21.68;46.38;100365.00;4369916;32;37654;-84
2022/09/06 06:34:04;;;;;;;;;;;;;;;21.89;45.84;100373.34;4368105;32;37528;-84
2022/09/06 06:36:32;;;;;;;;;;;;;;;21.39;45.83;100377.91;4375159;32;37947;-84
2022/09/06 06:39:00;;;;;;;;;;;;;;;21.83;45.46;100369.09;4369925;32;38723;-83
2022/09/06 06:41:29;;;;;;;;;;;;;;;21.88;45.14;100366.34;4375506;32;37940;-86
2022/09/06 06:43:57;;;;;;;;;;;;;;;22.00;44.64;100366.06;4368689;32;38158;-84
2022/09/06 06:46:28;;;;;;;;;;;;;;;22.11;45.38;100371.09;4352637;32;38734;-85
2022/09/06 06:48:56;;;;;;;;;;;;;;;22.32;45.10;100372.41;4368949;32;39401;-85
2022/09/06 06:51:24;;;;;;;;;;;;;;;22.26;44.20;100371.63;4374929;32;37091;-84
2022/09/06 06:53:51;;;;;;;;;;;;;;;22.46;43.95;100381.75;4374219;32;39165;-84
2022/09/06 06:56:19;;;;;;;;;;;;;;;22.78;43.01;100379.19;4369767;32;38001;-82
2022/09/06 06:58:47;;;;;;;;;;;;;;;23.06;42.78;100392.56;4375870;32;38462;-85
2022/09/06 07:01:15;;;;;;;;;;;;;;;23.32;40.89;100379.50;3908268;32;5002310;-84
2022/09/06 07:03:43;;;;;;;;;;;;;;;23.67;40.68;100389.13;4390145;32;37481;-85
2022/09/06 07:06:11;;;;;;;;;;;;;;;24.03;40.21;100388.97;4396706;32;38889;-86
2022/09/06 07:08:39;;;;;;;;;;;;;;;24.32;38.69;100385.41;4395475;32;38071;-85
2022/09/06 07:11:08;;;;;;;;;;;;;;;24.50;39.08;100389.25;4388364;32;38610;-83
2022/09/06 07:13:36;;;;;;;;;;;;;;;24.93;38.79;100387.81;4406694;32;36559;-85
2022/09/06 07:16:14;;;;;;;;;;;;;;;25.31;37.47;100390.94;4385465;32;37714;-85
2022/09/06 07:18:42;;;;;;;;;;;;;;;25.47;38.03;100383.31;4387771;32;39306;-83
2022/09/06 07:21:19;;;;;;;;;;;;;;;25.80;37.48;100389.13;4385105;32;39356;-83
2022/09/06 07:24:02;;;;;;;;;;;;;;;26.10;36.56;100397.72;4382907;32;36989;-82
2022/09/06 07:26:30;;;;;;;;;;;;;;;26.30;35.79;100396.06;4398933;32;39032;-82
2022/09/06 07:28:58;;;;;;;;;;;;;;;26.34;36.72;100398.53;4394738;32;39007;-83
2022/09/06 07:31:26;;;;;;;;;;;;;;;26.72;35.23;100397.94;4397519;32;38851;-84
2022/09/06 07:34:13;;;;;;;;;;;;;;;26.79;34.91;100389.63;4391768;32;37886;-82
2022/09/06 07:36:41;;;;;;;;;;;;;;;26.94;34.79;100393.44;4389318;32;38072;-82
2022/09/06 07:39:08;;;;;;;;;;;;;;;26.84;34.88;100387.66;4384775;32;39716;-83
2022/09/06 07:41:36;;;;;;;;;;;;;;;27.40;34.68;100390.59;4387470;32;38771;-84
2022/09/06 07:44:03;;;;;;;;;;;;;;;27.21;33.06;100390.53;4382369;32;38037;-84
2022/09/06 07:46:30;;;;;;;;;;;;;;;27.52;32.68;100395.34;4384187;32;39173;-84
2022/09/06 07:48:58;;;;;;;;;;;;;;;27.42;34.00;100394.06;4378565;32;38173;-84
2022/09/06 07:51:25;;;;;;;;;;;;;;;27.36;33.46;100385.41;4378520;32;38971;-84
2022/09/06 07:53:54;;;;;;;;;;;;;;;27.16;34.59;100392.56;4390299;32;36796;-84
2022/09/06 07:56:42;;;;;;;;;;;;;;;26.93;35.56;100396.16;4383178;32;39215;-83
2022/09/06 07:59:09;;;;;;;;;;;;;;;27.05;35.31;100400.94;4390406;32;38061;-85
2022/09/06 08:01:37;;;;;;;;;;;;;;;27.12;34.46;100391.75;4383983;32;40108;-85
2022/09/06 08:04:05;;;;;;;;;;;;;;;26.88;36.57;100391.91;4391876;32;37011;-85
2022/09/06 08:06:35;;;;;;;;;;;;;;;26.82;35.57;100389.50;4400958;32;38046;-85
2022/09/06 08:09:23;;;;;;;;;;;;;;;27.10;35.34;100398.97;4383241;32;38840;-85
2022/09/06 08:11:54;;;;;;;;;;;;;;;27.01;36.24;100396.69;4383950;32;39631;-85
2022/09/06 08:14:21;;;;;;;;;;;;;;;27.08;34.16;100400.81;4400683;32;38086;-84
2022/09/06 08:16:49;;;;;;;;;;;;;;;27.31;34.42;100400.72;4392670;32;38477;-84
2022/09/06 08:19:17;;;;;;;;;;;;;;;26.93;36.20;100385.50;4379506;32;38247;-87
2022/09/06 08:21:44;;;;;;;;;;;;;;;26.90;35.55;100392.72;4387327;32;39275;-84
2022/09/06 08:24:12;;;;;;;;;;;;;;;27.23;35.84;100384.22;4384463;32;37699;-84
2022/09/06 08:26:41;;;;;;;;;;;;;;;27.64;33.54;100384.16;4379217;32;39314;-85
2022/09/06 08:29:08;;;;;;;;;;;;;;;27.59;35.20;100388.81;4381545;32;37995;-82
2022/09/06 08:31:37;;;;;;;;;;;;;;;27.86;33.58;100380.56;4383964;32;39488;-82
2022/09/06 08:34:05;;;;;;;;;;;;;;;27.57;35.31;100380.94;4389584;32;37965;-82
2022/09/06 08:36:32;;;;;;;;;;;;;;;28.29;35.49;100377.53;4382897;32;38511;-83
2022/09/06 08:39:00;;;;;;;;;;;;;;;28.27;37.00;100376.78;4389143;32;37690;-84
2022/09/06 08:41:40;;;;;;;;;;;;;;;28.61;33.74;100372.44;4383230;32;40076;-83
2022/09/06 08:44:27;;;;;;;;;;;;;;;28.44;34.94;100375.97;4380145;32;37328;-83
2022/09/06 08:47:15;;;;;;;;;;;;;;;29.02;33.06;100366.84;4379738;32;38067;-83
2022/09/06 08:50:06;;;;;;;;;;;;;;;28.77;33.48;100371.69;4380189;32;37545;-83
2022/09/06 08:52:36;;;;;;;;;;;;;;;28.76;32.57;100376.16;4378770;32;38601;-83
2022/09/06 08:55:14;;;;;;;;;;;;;;;28.79;33.77;100375.16;4380158;32;38408;-83
2022/09/06 08:58:20;;;;;;;;;;;;;;;28.46;33.59;100367.88;4380823;32;39535;-84
2022/09/06 09:00:49;;;;;;;;;;;;;;;28.89;33.53;100365.72;4337028;33;38462;-84
2022/09/06 09:03:17;;;;;;;;;;;;;;;28.78;33.20;100362.75;4337280;33;39267;-84
2022/09/06 09:05:49;;;;;;;;;;;;;;;29.36;32.11;100354.41;4364286;32;36782;-85
2022/09/06 09:08:25;;;;;;;;;;;;;;;29.12;33.73;100362.75;4375510;32;38589;-83
2022/09/06 09:10:59;;;;;;;;;;;;;;;29.18;32.55;100357.09;4370418;32;38584;-87
2022/09/06 09:13:31;;;;;;;;;;;;;;;29.41;32.87;100360.34;4385461;32;38813;-87
2022/09/06 09:15:59;;;;;;;;;;;;;;;29.29;33.85;100353.88;4386172;32;36887;-84
2022/09/06 09:18:27;;;;;;;;;;;;;;;29.43;32.82;100353.13;4385289;32;39147;-85
2022/09/06 09:20:54;;;;;;;;;;;;;;;29.54;33.53;100341.87;4392189;32;38778;-86
2022/09/06 09:23:22;;;;;;;;;;;;;;;29.73;31.81;100336.41;4383456;32;39529;-85
2022/09/06 09:25:51;;;;;;;;;;;;;;;29.72;32.96;100335.56;4392187;32;36770;-86
2022/09/06 09:28:19;;;;;;;;;;;;;;;29.81;32.24;100328.84;4383935;32;38936;-86
2022/09/06 09:30:48;;;;;;;;;;;;;;;29.93;32.41;100338.84;4401736;32;39389;-86
2022/09/06 09:33:37;;;;;;;;;;;;;;;29.89;32.18;100330.12;4384845;32;38956;-86
2022/09/06 09:36:09;;;;;;;;;;;;;;;29.68;31.37;100322.47;4382082;32;38098;-87
2022/09/06 09:38:48;;;;;;;;;;;;;;;29.99;31.01;100325.13;4396402;32;38298;-85
2022/09/06 09:41:27;;;;;;;;;;;;;;;29.89;32.44;100319.44;4395747;32;38860;-84
2022/09/06 09:43:56;;;;;;;;;;;;;;;29.82;34.63;100319.88;4391768;32;38789;-84
2022/09/06 09:46:33;;;;;;;;;;;;;;;30.10;31.09;100314.69;4383581;32;37818;-86
2022/09/06 09:49:02;;;;;;;;;;;;;;;30.11;31.98;100311.06;4383609;32;37723;-85
2022/09/06 09:51:31;;;;;;;;;;;;;;;30.03;32.22;100308.00;4390985;32;38102;-84
2022/09/06 09:53:59;;;;;;;;;;;;;;;29.95;32.59;100299.56;4390625;32;38712;-86
2022/09/06 09:56:32;;;;;;;;;;;;;;;30.08;32.16;100297.03;4391430;32;36821;-85
2022/09/06 09:58:59;;;;;;;;;;;;;;;30.70;30.06;100302.34;4401403;32;38451;-84
2022/09/06 10:01:30;;;;;;;;;;;;;;;30.46;31.86;100294.81;4398399;32;38638;-86
2022/09/06 10:04:01;;;;;;;;;;;;;;;30.69;31.44;100293.44;4398174;32;38761;-85
2022/09/06 10:06:48;;;;;;;;;;;;;;;30.60;31.11;100294.03;4399065;32;36513;-84
2022/09/06 10:09:39;;;;;;;;;;;;;;;30.50;30.24;100291.00;4400228;32;38309;-84
2022/09/06 10:12:06;;;;;;;;;;;;;;;30.63;30.63;100284.94;4399685;32;38388;-84
2022/09/06 10:14:40;;;;;;;;;;;;;;;30.52;32.68;100278.44;4392529;32;39504;-87
2022/09/06 10:17:08;;;;;;;;;;;;;;;30.75;31.11;100278.84;4383712;32;37768;-86
2022/09/06 10:19:36;;;;;;;;;;;;;;;30.86;31.45;100279.09;4386164;32;38499;-85
2022/09/06 10:22:11;;;;;;;;;;;;;;;30.89;30.46;100276.25;4386549;32;37963;-87
2022/09/06 10:24:41;;;;;;;;;;;;;;;30.98;30.05;100273.00;4391602;32;38304;-85
2022/09/06 10:27:08;;;;;;;;;;;;;;;30.83;30.42;100260.59;4400313;32;37000;-86
2022/09/06 10:29:54;;;;;;;;;;;;;;;31.14;29.53;100274.69;4392649;32;38328;-86
2022/09/06 10:32:28;;;;;;;;;;;;;;;31.04;30.19;100264.56;4388244;32;39328;-87
2022/09/06 10:35:12;;;;;;;;;;;;;;;30.57;34.63;100264.81;4392542;32;38763;-87
2022/09/06 10:37:48;;;;;;;;;;;;;;;31.10;31.05;100258.00;4394561;32;38217;-87
2022/09/06 10:40:20;;;;;;;;;;;;;;;31.17;30.19;100253.13;4383517;32;37712;-88
2022/09/06 10:42:49;;;;;;;;;;;;;;;31.26;30.52;100247.19;4384552;32;37650;-89
2022/09/06 10:45:19;;;;;;;;;;;;;;;31.41;30.40;100237.37;4382595;32;39258;-90
2022/09/06 10:48:03;;;;;;;;;;;;;;;31.56;31.17;100243.53;4383665;32;37006;-88
2022/09/06 10:50:34;;;;;;;;;;;;;;;31.64;30.34;100243.91;4376074;32;46316;-87
2022/09/06 10:53:05;;;;;;;;;;;;;;;31.73;29.90;100245.97;4385414;32;37981;-86
2022/09/06 10:55:33;;;;;;;;;;;;;;;31.69;31.24;100249.81;4382227;32;38934;-88
2022/09/06 10:58:03;;;;;;;;;;;;;;;31.56;31.01;100249.75;4382239;32;38460;-87
2022/09/06 11:01:06;;;;;;;;;;;;;;;31.41;30.32;100248.06;4387232;32;36963;-87
2022/09/06 11:03:34;;;;;;;;;;;;;;;31.54;29.46;100245.47;4384049;32;38013;-88
2022/09/06 11:06:22;;;;;;;;;;;;;;;31.81;30.12;100254.34;4371043;32;38874;-86
2022/09/06 11:09:12;;;;;;;;;;;;;;;32.07;29.50;100251.78;4385578;32;37070;-86
2022/09/06 11:11:50;;;;;;;;;;;;;;;31.94;29.93;100241.91;4381575;32;38989;-86
2022/09/06 11:14:17;;;;;;;;;;;;;;;31.75;30.70;100241.38;4356180;32;37167;-87
2022/09/06 11:16:52;;;;;;;;;;;;;;;31.23;33.46;100247.37;4388618;32;39306;-88
2022/09/06 11:19:21;;;;;;;;;;;;;;;31.16;30.66;100235.34;4081211;32;9999957;-87
2022/09/06 11:21:53;;;;;;;;;;;;;;;31.42;30.46;100237.25;4384939;32;37926;-88
2022/09/06 11:24:20;;;;;;;;;;;;;;;31.95;29.75;100230.25;4392375;32;39094;-87
2022/09/06 11:27:19;;;;;;;;;;;;;;;31.88;29.69;100228.94;4386831;32;38902;-86
2022/09/06 11:29:50;;;;;;;;;;;;;;;31.73;29.97;100227.25;4369450;32;38884;-86
2022/09/06 11:32:24;;;;;;;;;;;;;;;31.59;31.23;100222.81;4384061;32;37838;-86
2022/09/06 11:34:55;;;;;;;;;;;;;;;31.16;30.43;100219.31;4390251;32;38464;-86
2022/09/06 11:37:32;;;;;;;;;;;;;;;30.91;31.79;100225.34;4382644;32;37815;-86
2022/09/06 11:40:13;;;;;;;;;;;;;;;31.30;31.85;100216.59;4395338;32;38696;-85
2022/09/06 11:42:58;;;;;;;;;;;;;;;31.25;31.23;100210.69;4393384;32;37937;-85
2022/09/06 11:45:44;;;;;;;;;;;;;;;31.34;31.95;100218.19;4391178;32;39329;-84
2022/09/06 11:48:34;;;;;;;;;;;;;;;31.02;31.79;100202.34;4390655;32;38117;-86
2022/09/06 11:51:01;;;;;;;;;;;;;;;31.40;30.94;100207.06;4382025;32;38856;-86
2022/09/06 11:53:49;;;;;;;;;;;;;;;31.11;31.73;100200.00;4388906;32;36448;-87
2022/09/06 11:56:42;;;;;;;;;;;;;;;31.09;31.01;100196.59;4367148;32;38139;-86
2022/09/06 11:59:19;;;;;;;;;;;;;;;30.59;33.09;100194.25;4379820;32;38355;-88
2022/09/06 12:01:52;;;;;;;;;;;;;;;31.21;30.97;100185.13;4380965;32;40083;-86
2022/09/06 12:04:20;;;;;;;;;;;;;;;31.19;31.15;100187.03;4382865;32;36460;-85
2022/09/06 12:07:07;;;;;;;;;;;;;;;31.23;31.60;100178.69;4381075;32;39092;-85
2022/09/06 12:09:35;;;;;;;;;;;;;;;31.26;30.98;100177.62;4374001;32;38076;-85
2022/09/06 12:12:03;;;;;;;;;;;;;;;31.38;31.24;100182.22;4371864;32;39167;-85
2022/09/06 12:14:33;;;;;;;;;;;;;;;31.56;30.57;100166.78;4374101;32;36874;-85
2022/09/06 12:17:03;;;;;;;;;;;;;;;31.49;30.55;100174.38;4382531;32;39209;-86
2022/09/06 12:19:39;;;;;;;;;;;;;;;31.44;30.53;100176.47;4381633;32;38408;-86
2022/09/06 12:22:26;;;;;;;;;;;;;;;31.73;30.68;100171.03;4380535;32;38500;-88
2022/09/06 12:24:54;;;;;;;;;;;;;;;31.46;29.54;100174.56;4381705;32;36559;-87
2022/09/06 12:27:22;;;;;;;;;;;;;;;31.30;31.32;100157.75;4357563;32;38308;-87
2022/09/06 12:29:53;;;;;;;;;;;;;;;31.60;31.19;100154.06;4366457;32;39274;-87
2022/09/06 12:32:23;;;;;;;;;;;;;;;31.40;30.22;100148.22;4369661;32;38921;-87
2022/09/06 12:34:50;;;;;;;;;;;;;;;31.41;29.63;100139.22;4376448;32;36861;-87
2022/09/06 12:37:48;;;;;;;;;;;;;;;31.26;29.01;100141.03;4366003;32;38463;-87
2022/09/06 12:40:17;;;;;;;;;;;;;;;31.63;29.30;100132.44;4382724;32;40069;-88
2022/09/06 12:42:46;;;;;;;;;;;;;;;31.52;29.89;100140.31;4381319;32;39216;-86
2022/09/06 12:45:13;;;;;;;;;;;;;;;31.06;30.02;100140.62;4370428;32;36820;-86
2022/09/06 12:47:40;;;;;;;;;;;;;;;31.30;32.48;100124.78;4377772;32;37619;-87
2022/09/06 12:50:13;;;;;;;;;;;;;;;30.67;30.22;100126.16;4377834;32;38003;-88
2022/09/06 12:52:54;;;;;;;;;;;;;;;31.39;30.64;100130.44;4383300;32;38629;-85
2022/09/06 12:55:26;;;;;;;;;;;;;;;31.34;30.73;100124.53;4378424;32;37358;-86